Arnold, Michigan
Current Conditions -  °F | °C
As of 6:45 AM on Saturday 20 Dec 2014 (Local Time) from KSAW Reporting Station
Haze Haze  
Wind Chill: 10°   Ceiling: 200
Heat Index: 10°   Visibility: 2mi
Dew Point:   Wind: 0mph
Humidity: 85%   Direction: NA
Pressure: 30.21"   Gusts: NA
Location:  46.05°N, 87.49°W
Report Text: KSAW 201145Z 00000KT 2SM BR OVC002 M12/M14 A3021
Loading
Personal Weather Stations






























Interactive Weather Map New forecast layout! Learn more

10-Day Weather Forecast

Advertisements
Track Severe Weather on mobile